Courageous — WBC5659 — position and weather

sailwx.info

Track history (hours):
 
Tides and Currents Weather Stations Pressure Air Temp Water Temp Dewpoint Dewpoint Depression Visibility Wind Speed Wind Dir Waves Ship Positions

Courageous

Last reported at 2015-Dec-14 08:25 UTC. Time now 2016-May-31 23:45 UTC.
Position N 51°04' W 127°55'.
Warning: this ship's position is months out of date.

Length 54 m; draft 6 m.

Type: Ship (hazmat cat B). MMSI: 368499000.

Date/timePositionNaut miles runAvg speedWind from/ knotsBaromVisibWave heightAir tempDewpointWater temp
2015-Dec-14 08:25N 51°04' W 127°55'5 6.0
2015-Dec-14 07:32N 50°60' W 127°49'6 6.0
2015-Dec-14 06:33N 50°56' W 127°42'7 6.6
2015-Dec-14 05:33N 50°52' W 127°33'7 6.7
2015-Dec-14 04:33N 50°49' W 127°24'10 7.3
2015-Dec-14 03:15N 50°45' W 127°10'4 5.3
2015-Dec-14 02:29N 50°43' W 127°05'66 6.4
2015-Dec-13 16:16N 50°21' W 125°27'7 9.3
2015-Dec-13 15:33N 50°15' W 125°23'8 7.8
2015-Dec-13 14:34N 50°07' W 125°19'7 6.6
2015-Dec-13 13:33N 50°02' W 125°13'6 5.7
2015-Dec-13 12:33N 49°57' W 125°09'1 1.0
2015-Dec-13 11:33N 49°58' W 125°09'7 6.5
2015-Dec-13 10:34N 49°53' W 125°02'7 7.4
2015-Dec-13 09:34N 49°47' W 124°55'8 7.7
2015-Dec-13 08:34N 49°42' W 124°47'8 7.6
2015-Dec-13 07:33N 49°36' W 124°38'7 7.4
2015-Dec-13 06:34N 49°31' W 124°31'8 8.5
2015-Dec-13 05:33N 49°25' W 124°21'8 7.9
2015-Dec-13 04:33N 49°23' W 124°10'6 6.2
2015-Dec-13 03:33N 49°21' W 124°01'6 6.5
2015-Dec-13 02:33N 49°19' W 123°51'7 6.7
2015-Dec-13 01:33N 49°16' W 123°42'7 7.2
2015-Dec-13 00:33N 49°12' W 123°33'8 7.5
2015-Dec-12 23:33N 49°07' W 123°25'8 7.7
2015-Dec-12 22:33N 49°01' W 123°16'8 7.8
2015-Dec-12 21:33N 48°56' W 123°07'9 9.0
2015-Dec-12 20:33N 48°50' W 122°57'9 9.1
2015-Dec-12 19:33N 48°45' W 122°46'8 7.7
2015-Dec-12 18:33N 48°38' W 122°44'8 7.7
2015-Dec-12 17:33N 48°30' W 122°44'27 8.5
2015-Dec-12 14:19N 48°03' W 122°38'7 9.2
2015-Dec-12 13:33N 47°57' W 122°32'9 8.8
2015-Dec-12 12:33N 47°49' W 122°26'8 7.5
2015-Dec-12 11:33N 47°42' W 122°25'2 1.6
2015-Dec-12 10:33N 47°40' W 122°24'1 0.7
2015-Dec-12 09:33N 47°40' W 122°24'0 0.0
2015-Dec-12 08:33N 47°40' W 122°24'0 0.0
2015-Dec-12 07:33N 47°40' W 122°24'0 0.0
2015-Dec-12 06:34N 47°40' W 122°24'0 0.0
2015-Dec-12 05:33N 47°40' W 122°24'0 0.0
2015-Dec-12 04:33N 47°40' W 122°24'0 0.0
2015-Dec-12 03:33N 47°40' W 122°24'0 0.0
2015-Dec-12 02:33N 47°40' W 122°24'0 0.0
2015-Dec-12 01:33N 47°40' W 122°24'0 0.0
2015-Dec-12 00:34N 47°40' W 122°24'0 0.0
2015-Dec-11 23:33N 47°40' W 122°24'0 0.0
2015-Dec-11 22:33N 47°40' W 122°24'0 0.0
2015-Dec-11 21:33N 47°40' W 122°24'0 0.0
2015-Dec-11 20:33N 47°40' W 122°24'0 0.0
2015-Dec-11 19:33N 47°40' W 122°24'0 0.0
2015-Dec-11 18:33N 47°40' W 122°24'0 0.0
2015-Dec-11 17:33N 47°40' W 122°24'0 0.0
2015-Dec-11 16:33N 47°40' W 122°24'0 0.0
2015-Dec-11 15:33N 47°40' W 122°24'0 0.0
2015-Dec-11 14:33N 47°40' W 122°24'0 0.0
2015-Dec-11 13:33N 47°40' W 122°24'0 0.0
2015-Dec-11 12:33N 47°40' W 122°24'0 0.0
2015-Dec-11 11:33N 47°40' W 122°24'0 0.0
2015-Dec-11 10:33N 47°40' W 122°24'0 0.0
2015-Dec-11 09:33N 47°40' W 122°24'0 0.0
2015-Dec-11 08:33N 47°40' W 122°24'0 0.0
2015-Dec-11 07:33N 47°40' W 122°24'0 0.0
2015-Dec-11 06:33N 47°40' W 122°24'0 0.0
2015-Dec-11 05:33N 47°40' W 122°24'0 0.0
2015-Dec-11 04:33N 47°40' W 122°24'0 0.0
2015-Dec-11 03:33N 47°40' W 122°24'0 0.0
2015-Dec-11 02:33N 47°40' W 122°24'0 0.0
2015-Dec-11 01:33N 47°40' W 122°24'0 0.0
2015-Dec-11 00:33N 47°40' W 122°24'0 0.0
2015-Dec-10 23:33N 47°40' W 122°24'0 0.0
2015-Dec-10 22:33N 47°40' W 122°24'0 0.0
2015-Dec-10 21:33N 47°40' W 122°24'0 0.0
2015-Dec-10 20:33N 47°40' W 122°24'0 0.0
2015-Dec-10 19:33N 47°40' W 122°24'0 0.0
2015-Dec-10 18:33N 47°40' W 122°24'0 0.0
2015-Dec-10 17:34N 47°40' W 122°24'0 0.0
2015-Dec-10 16:34N 47°40' W 122°24'0 0.0
2015-Dec-10 15:33N 47°40' W 122°24'0 0.0
2015-Dec-10 14:33N 47°40' W 122°24'0 0.0
2015-Dec-10 13:33N 47°40' W 122°24'0 0.0
2015-Dec-10 12:33N 47°40' W 122°24'0 0.0
2015-Dec-10 11:33N 47°40' W 122°24'0 0.0
2015-Dec-10 10:33N 47°40' W 122°24'0 0.0
2015-Dec-10 09:33N 47°40' W 122°24'0 0.0
2015-Dec-10 08:33N 47°40' W 122°24'0 0.0
2015-Dec-10 07:33N 47°40' W 122°24'0 0.0
2015-Dec-10 06:34N 47°40' W 122°24'0 0.0
2015-Dec-10 05:33N 47°40' W 122°24'0 0.0
2015-Dec-10 04:33N 47°40' W 122°24'0 0.0
2015-Dec-10 03:33N 47°40' W 122°24'0 0.0
2015-Dec-10 02:34N 47°40' W 122°24'0 0.0
2015-Dec-10 01:33N 47°40' W 122°24'0 0.0
2015-Dec-10 00:33N 47°40' W 122°24'0 0.0
2015-Dec-09 23:33N 47°40' W 122°24'0 0.0
2015-Dec-09 22:33N 47°40' W 122°24'0 0.0
2015-Dec-09 21:33N 47°40' W 122°24'0 0.0
2015-Dec-09 20:33N 47°40' W 122°24'0 0.0
2015-Dec-09 19:33N 47°40' W 122°24'0 0.0
2015-Dec-09 18:34N 47°40' W 122°24'0 0.0
2015-Dec-09 17:33N 47°40' W 122°24'0 0.0
2015-Dec-09 16:33N 47°40' W 122°24'0 0.0
2015-Dec-09 15:33N 47°40' W 122°24'0 0.0
2015-Dec-09 14:33N 47°40' W 122°24'0 0.0
2015-Dec-09 13:33N 47°40' W 122°24'0 0.0
2015-Dec-09 12:33N 47°40' W 122°24'0 0.0
2015-Dec-09 11:34N 47°40' W 122°24'0 0.0
2015-Dec-09 10:33N 47°40' W 122°24'0 0.0
2015-Dec-09 09:33N 47°40' W 122°24'0 0.0
2015-Dec-09 08:33N 47°40' W 122°24'0 0.0
2015-Dec-09 07:33N 47°40' W 122°24'0 0.0
2015-Dec-09 06:33N 47°40' W 122°24'0 0.0
2015-Dec-09 05:33N 47°40' W 122°24'0 0.0
2015-Dec-09 04:33N 47°40' W 122°24'0 0.0
2015-Dec-09 03:33N 47°40' W 122°24'0 0.0
2015-Dec-09 02:33N 47°40' W 122°24'0 0.0
2015-Dec-09 01:34N 47°40' W 122°24'0 0.0
2015-Dec-09 00:33N 47°40' W 122°24'0 0.0
2015-Dec-08 23:33N 47°40' W 122°24'0 0.0
2015-Dec-08 22:34N 47°40' W 122°24'0 0.0
2015-Dec-08 21:33N 47°40' W 122°24'0 0.0
2015-Dec-08 20:33N 47°40' W 122°24'0 0.0
2015-Dec-08 19:33N 47°40' W 122°24'0 0.0
2015-Dec-08 18:33N 47°40' W 122°24'0 0.0
2015-Dec-08 17:33N 47°40' W 122°24'0 0.0
2015-Dec-08 16:33N 47°40' W 122°24'0 0.0
2015-Dec-08 15:33N 47°40' W 122°24'0 0.0
2015-Dec-08 14:33N 47°40' W 122°24'0 0.0
2015-Dec-08 13:33N 47°40' W 122°24'0 0.0
2015-Dec-08 12:33N 47°40' W 122°24'0 0.0
2015-Dec-08 11:33N 47°40' W 122°24'0 0.0
2015-Dec-08 10:33N 47°40' W 122°24'0 0.0
2015-Dec-08 09:33N 47°40' W 122°24'0 0.0
2015-Dec-08 08:33N 47°40' W 122°24'0 0.0
2015-Dec-08 07:33N 47°40' W 122°24'0 0.0
2015-Dec-08 06:33N 47°40' W 122°24'0 0.0
2015-Dec-08 05:33N 47°40' W 122°24'0 0.0
2015-Dec-08 04:33N 47°40' W 122°24'0 0.0
2015-Dec-08 03:33N 47°40' W 122°24'0 0.0
2015-Dec-08 02:33N 47°40' W 122°24'0 0.0
2015-Dec-08 01:33N 47°40' W 122°24'0 0.0
2015-Dec-08 00:34N 47°40' W 122°24'0 0.0
2015-Dec-07 23:33N 47°40' W 122°24'0 0.0
2015-Dec-07 22:34N 47°40' W 122°24'0 0.0
2015-Dec-07 21:33N 47°40' W 122°24'0 0.0
2015-Dec-07 20:33N 47°40' W 122°24'0 0.0
2015-Dec-07 19:34N 47°40' W 122°24'0 0.0
2015-Dec-07 18:33N 47°40' W 122°24'0 0.0
2015-Dec-07 17:34N 47°40' W 122°24'0 0.0
2015-Dec-07 16:33N 47°40' W 122°24'0 0.0
2015-Dec-07 15:33N 47°40' W 122°24'0 0.0
2015-Dec-07 14:33N 47°40' W 122°24'0 0.0
2015-Dec-07 13:33N 47°40' W 122°24'0 0.0
2015-Dec-07 12:33N 47°40' W 122°24'0 0.0
2015-Dec-07 11:33N 47°40' W 122°24'0 0.0
2015-Dec-07 10:33N 47°40' W 122°24'0 0.0
2015-Dec-07 09:34N 47°40' W 122°24'0 0.0
2015-Dec-07 08:33N 47°40' W 122°24'0 0.0
2015-Dec-07 07:33N 47°40' W 122°24'0 0.0
2015-Dec-07 06:33N 47°40' W 122°24'0 0.0
2015-Dec-07 05:33N 47°40' W 122°24'0 0.0
2015-Dec-07 04:33N 47°40' W 122°24'0 0.0
2015-Dec-07 03:33N 47°40' W 122°24'0 0.0
2015-Dec-07 02:33N 47°40' W 122°24'0 0.0
2015-Dec-07 01:33N 47°40' W 122°24'0 0.0
2015-Dec-07 00:33N 47°40' W 122°24'0 0.0
2015-Dec-06 23:33N 47°40' W 122°24'0 0.0
2015-Dec-06 22:33N 47°40' W 122°24'0 0.0
2015-Dec-06 21:33N 47°40' W 122°24'0 0.3
2015-Dec-06 20:33N 47°40' W 122°23'0 0.0
2015-Dec-06 19:33N 47°40' W 122°23'0 0.0
2015-Dec-06 18:33N 47°40' W 122°23'0 0.0
2015-Dec-06 17:33N 47°40' W 122°23'0 0.0
2015-Dec-06 16:33N 47°40' W 122°23'0 0.0
2015-Dec-06 15:33N 47°40' W 122°23'0 0.3
2015-Dec-06 14:33N 47°40' W 122°24'0 0.0
2015-Dec-06 13:33N 47°40' W 122°24'0 0.0
2015-Dec-06 12:33N 47°40' W 122°24'0 0.0
2015-Dec-06 11:33N 47°40' W 122°24'0 0.0
2015-Dec-06 10:33N 47°40' W 122°24'0 0.0
2015-Dec-06 09:33N 47°40' W 122°24'0 0.0
2015-Dec-06 08:33N 47°40' W 122°24'0 0.0
2015-Dec-06 07:33N 47°40' W 122°24'0 0.0
2015-Dec-06 06:33N 47°40' W 122°24'0 0.0
2015-Dec-06 05:33N 47°40' W 122°24'0 0.0
2015-Dec-06 04:33N 47°40' W 122°24'0 0.0
2015-Dec-06 03:33N 47°40' W 122°24'0 0.0
2015-Dec-06 02:34N 47°40' W 122°24'0 0.0
2015-Dec-06 01:33N 47°40' W 122°24'0 0.0
2015-Dec-06 00:33N 47°40' W 122°24'0 0.0
2015-Dec-05 23:33N 47°40' W 122°24'0 0.0
2015-Dec-05 22:33N 47°40' W 122°24'0 0.0
2015-Dec-05 21:33N 47°40' W 122°24'0 0.0
2015-Dec-05 20:34N 47°40' W 122°24'0 0.0
2015-Dec-05 19:33N 47°40' W 122°24'0 0.0
2015-Dec-05 18:34N 47°40' W 122°24'0 0.0
2015-Dec-05 17:34N 47°40' W 122°24'0 0.0
2015-Dec-05 16:34N 47°40' W 122°24'0 0.0
2015-Dec-05 15:33N 47°40' W 122°24'0 0.0
2015-Dec-05 14:33N 47°40' W 122°24'0 0.0
2015-Dec-05 13:33N 47°40' W 122°24'0 0.0
2015-Dec-05 12:33N 47°40' W 122°24'0 0.0
2015-Dec-05 11:33N 47°40' W 122°24'0 0.0
2015-Dec-05 10:33N 47°40' W 122°24'0 0.0
2015-Dec-05 09:33N 47°40' W 122°24'0 0.0
2015-Dec-05 08:33N 47°40' W 122°24'0 0.0
2015-Dec-05 07:33N 47°40' W 122°24'0 0.0
2015-Dec-05 06:33N 47°40' W 122°24'0 0.0
2015-Dec-05 05:33N 47°40' W 122°24'0 0.0
2015-Dec-05 04:33N 47°40' W 122°24'0 0.0
2015-Dec-05 03:33N 47°40' W 122°24'0 0.0
2015-Dec-05 02:33N 47°40' W 122°24'0 0.0
2015-Dec-05 01:33N 47°40' W 122°24'0 0.0
2015-Dec-05 00:33N 47°40' W 122°24'0 0.0
2015-Dec-04 23:33N 47°40' W 122°24'0 0.0
2015-Dec-04 22:33N 47°40' W 122°24'0 0.0
2015-Dec-04 21:33N 47°40' W 122°24'0 0.0
2015-Dec-04 20:33N 47°40' W 122°24'0 0.0
2015-Dec-04 19:33N 47°40' W 122°24'0 0.0
2015-Dec-04 18:33N 47°40' W 122°24'0 0.0
2015-Dec-04 17:33N 47°40' W 122°24'0 0.0
2015-Dec-04 16:33N 47°40' W 122°24'0 0.0
2015-Dec-04 15:33N 47°40' W 122°24'0 0.0
2015-Dec-04 14:33N 47°40' W 122°24'0 0.0
2015-Dec-04 13:33N 47°40' W 122°24'0 0.0
2015-Dec-04 12:33N 47°40' W 122°24'0 0.0
2015-Dec-04 11:33N 47°40' W 122°24'0 0.0
2015-Dec-04 10:33N 47°40' W 122°24'0 0.0
2015-Dec-04 09:33N 47°40' W 122°24'0 0.0
2015-Dec-04 08:33N 47°40' W 122°24'  
Track history (hours):
 
Tides and Currents Weather Stations Pressure Air Temp Water Temp Dewpoint Dewpoint Depression Visibility Wind Speed Wind Dir Waves Ship Positions

Courageous

Last reported at 2015-Dec-14 08:25 UTC. Time now 2016-May-31 23:45 UTC.
Position N 51°04' W 127°55'.
Warning: this ship's position is months out of date.

Length 54 m; draft 6 m.

Type: Ship (hazmat cat B). MMSI: 368499000.

Date/timePositionNaut miles runAvg speedWind from/ knotsBaromVisibWave heightAir tempDewpointWater temp
2015-Dec-14 08:25N 51°04' W 127°55'5 6.0
2015-Dec-14 07:32N 50°60' W 127°49'6 6.0
2015-Dec-14 06:33N 50°56' W 127°42'7 6.6
2015-Dec-14 05:33N 50°52' W 127°33'7 6.7
2015-Dec-14 04:33N 50°49' W 127°24'10 7.3
2015-Dec-14 03:15N 50°45' W 127°10'4 5.3
2015-Dec-14 02:29N 50°43' W 127°05'66 6.4
2015-Dec-13 16:16N 50°21' W 125°27'7 9.3
2015-Dec-13 15:33N 50°15' W 125°23'8 7.8
2015-Dec-13 14:34N 50°07' W 125°19'7 6.6
2015-Dec-13 13:33N 50°02' W 125°13'6 5.7
2015-Dec-13 12:33N 49°57' W 125°09'1 1.0
2015-Dec-13 11:33N 49°58' W 125°09'7 6.5
2015-Dec-13 10:34N 49°53' W 125°02'7 7.4
2015-Dec-13 09:34N 49°47' W 124°55'8 7.7
2015-Dec-13 08:34N 49°42' W 124°47'8 7.6
2015-Dec-13 07:33N 49°36' W 124°38'7 7.4
2015-Dec-13 06:34N 49°31' W 124°31'8 8.5
2015-Dec-13 05:33N 49°25' W 124°21'8 7.9
2015-Dec-13 04:33N 49°23' W 124°10'6 6.2
2015-Dec-13 03:33N 49°21' W 124°01'6 6.5
2015-Dec-13 02:33N 49°19' W 123°51'7 6.7
2015-Dec-13 01:33N 49°16' W 123°42'7 7.2
2015-Dec-13 00:33N 49°12' W 123°33'8 7.5
2015-Dec-12 23:33N 49°07' W 123°25'8 7.7
2015-Dec-12 22:33N 49°01' W 123°16'8 7.8
2015-Dec-12 21:33N 48°56' W 123°07'9 9.0
2015-Dec-12 20:33N 48°50' W 122°57'9 9.1
2015-Dec-12 19:33N 48°45' W 122°46'8 7.7
2015-Dec-12 18:33N 48°38' W 122°44'8 7.7
2015-Dec-12 17:33N 48°30' W 122°44'27 8.5
2015-Dec-12 14:19N 48°03' W 122°38'7 9.2
2015-Dec-12 13:33N 47°57' W 122°32'9 8.8
2015-Dec-12 12:33N 47°49' W 122°26'8 7.5
2015-Dec-12 11:33N 47°42' W 122°25'2 1.6
2015-Dec-12 10:33N 47°40' W 122°24'1 0.7
2015-Dec-12 09:33N 47°40' W 122°24'0 0.0
2015-Dec-12 08:33N 47°40' W 122°24'0 0.0
2015-Dec-12 07:33N 47°40' W 122°24'0 0.0
2015-Dec-12 06:34N 47°40' W 122°24'0 0.0
2015-Dec-12 05:33N 47°40' W 122°24'0 0.0
2015-Dec-12 04:33N 47°40' W 122°24'0 0.0
2015-Dec-12 03:33N 47°40' W 122°24'0 0.0
2015-Dec-12 02:33N 47°40' W 122°24'0 0.0
2015-Dec-12 01:33N 47°40' W 122°24'0 0.0
2015-Dec-12 00:34N 47°40' W 122°24'0 0.0
2015-Dec-11 23:33N 47°40' W 122°24'0 0.0
2015-Dec-11 22:33N 47°40' W 122°24'0 0.0
2015-Dec-11 21:33N 47°40' W 122°24'0 0.0
2015-Dec-11 20:33N 47°40' W 122°24'0 0.0
2015-Dec-11 19:33N 47°40' W 122°24'0 0.0
2015-Dec-11 18:33N 47°40' W 122°24'0 0.0
2015-Dec-11 17:33N 47°40' W 122°24'0 0.0
2015-Dec-11 16:33N 47°40' W 122°24'0 0.0
2015-Dec-11 15:33N 47°40' W 122°24'0 0.0
2015-Dec-11 14:33N 47°40' W 122°24'0 0.0
2015-Dec-11 13:33N 47°40' W 122°24'0 0.0
2015-Dec-11 12:33N 47°40' W 122°24'0 0.0
2015-Dec-11 11:33N 47°40' W 122°24'0 0.0
2015-Dec-11 10:33N 47°40' W 122°24'0 0.0
2015-Dec-11 09:33N 47°40' W 122°24'0 0.0
2015-Dec-11 08:33N 47°40' W 122°24'0 0.0
2015-Dec-11 07:33N 47°40' W 122°24'0 0.0
2015-Dec-11 06:33N 47°40' W 122°24'0 0.0
2015-Dec-11 05:33N 47°40' W 122°24'0 0.0
2015-Dec-11 04:33N 47°40' W 122°24'0 0.0
2015-Dec-11 03:33N 47°40' W 122°24'0 0.0
2015-Dec-11 02:33N 47°40' W 122°24'0 0.0
2015-Dec-11 01:33N 47°40' W 122°24'0 0.0
2015-Dec-11 00:33N 47°40' W 122°24'0 0.0
2015-Dec-10 23:33N 47°40' W 122°24'0 0.0
2015-Dec-10 22:33N 47°40' W 122°24'0 0.0
2015-Dec-10 21:33N 47°40' W 122°24'0 0.0
2015-Dec-10 20:33N 47°40' W 122°24'0 0.0
2015-Dec-10 19:33N 47°40' W 122°24'0 0.0
2015-Dec-10 18:33N 47°40' W 122°24'0 0.0
2015-Dec-10 17:34N 47°40' W 122°24'0 0.0
2015-Dec-10 16:34N 47°40' W 122°24'0 0.0
2015-Dec-10 15:33N 47°40' W 122°24'0 0.0
2015-Dec-10 14:33N 47°40' W 122°24'0 0.0
2015-Dec-10 13:33N 47°40' W 122°24'0 0.0
2015-Dec-10 12:33N 47°40' W 122°24'0 0.0
2015-Dec-10 11:33N 47°40' W 122°24'0 0.0
2015-Dec-10 10:33N 47°40' W 122°24'0 0.0
2015-Dec-10 09:33N 47°40' W 122°24'0 0.0
2015-Dec-10 08:33N 47°40' W 122°24'0 0.0
2015-Dec-10 07:33N 47°40' W 122°24'0 0.0
2015-Dec-10 06:34N 47°40' W 122°24'0 0.0
2015-Dec-10 05:33N 47°40' W 122°24'0 0.0
2015-Dec-10 04:33N 47°40' W 122°24'0 0.0
2015-Dec-10 03:33N 47°40' W 122°24'0 0.0
2015-Dec-10 02:34N 47°40' W 122°24'0 0.0
2015-Dec-10 01:33N 47°40' W 122°24'0 0.0
2015-Dec-10 00:33N 47°40' W 122°24'0 0.0
2015-Dec-09 23:33N 47°40' W 122°24'0 0.0
2015-Dec-09 22:33N 47°40' W 122°24'0 0.0
2015-Dec-09 21:33N 47°40' W 122°24'0 0.0
2015-Dec-09 20:33N 47°40' W 122°24'0 0.0
2015-Dec-09 19:33N 47°40' W 122°24'0 0.0
2015-Dec-09 18:34N 47°40' W 122°24'0 0.0
2015-Dec-09 17:33N 47°40' W 122°24'0 0.0
2015-Dec-09 16:33N 47°40' W 122°24'0 0.0
2015-Dec-09 15:33N 47°40' W 122°24'0 0.0
2015-Dec-09 14:33N 47°40' W 122°24'0 0.0
2015-Dec-09 13:33N 47°40' W 122°24'0 0.0
2015-Dec-09 12:33N 47°40' W 122°24'0 0.0
2015-Dec-09 11:34N 47°40' W 122°24'0 0.0
2015-Dec-09 10:33N 47°40' W 122°24'0 0.0
2015-Dec-09 09:33N 47°40' W 122°24'0 0.0
2015-Dec-09 08:33N 47°40' W 122°24'0 0.0
2015-Dec-09 07:33N 47°40' W 122°24'0 0.0
2015-Dec-09 06:33N 47°40' W 122°24'0 0.0
2015-Dec-09 05:33N 47°40' W 122°24'0 0.0
2015-Dec-09 04:33N 47°40' W 122°24'0 0.0
2015-Dec-09 03:33N 47°40' W 122°24'0 0.0
2015-Dec-09 02:33N 47°40' W 122°24'0 0.0
2015-Dec-09 01:34N 47°40' W 122°24'0 0.0
2015-Dec-09 00:33N 47°40' W 122°24'0 0.0
2015-Dec-08 23:33N 47°40' W 122°24'0 0.0
2015-Dec-08 22:34N 47°40' W 122°24'0 0.0
2015-Dec-08 21:33N 47°40' W 122°24'0 0.0
2015-Dec-08 20:33N 47°40' W 122°24'0 0.0
2015-Dec-08 19:33N 47°40' W 122°24'0 0.0
2015-Dec-08 18:33N 47°40' W 122°24'0 0.0
2015-Dec-08 17:33N 47°40' W 122°24'0 0.0
2015-Dec-08 16:33N 47°40' W 122°24'0 0.0
2015-Dec-08 15:33N 47°40' W 122°24'0 0.0
2015-Dec-08 14:33N 47°40' W 122°24'0 0.0
2015-Dec-08 13:33N 47°40' W 122°24'0 0.0
2015-Dec-08 12:33N 47°40' W 122°24'0 0.0
2015-Dec-08 11:33N 47°40' W 122°24'0 0.0
2015-Dec-08 10:33N 47°40' W 122°24'0 0.0
2015-Dec-08 09:33N 47°40' W 122°24'0 0.0
2015-Dec-08 08:33N 47°40' W 122°24'0 0.0
2015-Dec-08 07:33N 47°40' W 122°24'0 0.0
2015-Dec-08 06:33N 47°40' W 122°24'0 0.0
2015-Dec-08 05:33N 47°40' W 122°24'0 0.0
2015-Dec-08 04:33N 47°40' W 122°24'0 0.0
2015-Dec-08 03:33N 47°40' W 122°24'0 0.0
2015-Dec-08 02:33N 47°40' W 122°24'0 0.0
2015-Dec-08 01:33N 47°40' W 122°24'0 0.0
2015-Dec-08 00:34N 47°40' W 122°24'0 0.0
2015-Dec-07 23:33N 47°40' W 122°24'0 0.0
2015-Dec-07 22:34N 47°40' W 122°24'0 0.0
2015-Dec-07 21:33N 47°40' W 122°24'0 0.0
2015-Dec-07 20:33N 47°40' W 122°24'0 0.0
2015-Dec-07 19:34N 47°40' W 122°24'0 0.0
2015-Dec-07 18:33N 47°40' W 122°24'0 0.0
2015-Dec-07 17:34N 47°40' W 122°24'0 0.0
2015-Dec-07 16:33N 47°40' W 122°24'0 0.0
2015-Dec-07 15:33N 47°40' W 122°24'0 0.0
2015-Dec-07 14:33N 47°40' W 122°24'0 0.0
2015-Dec-07 13:33N 47°40' W 122°24'0 0.0
2015-Dec-07 12:33N 47°40' W 122°24'0 0.0
2015-Dec-07 11:33N 47°40' W 122°24'0 0.0
2015-Dec-07 10:33N 47°40' W 122°24'0 0.0
2015-Dec-07 09:34N 47°40' W 122°24'0 0.0
2015-Dec-07 08:33N 47°40' W 122°24'0 0.0
2015-Dec-07 07:33N 47°40' W 122°24'0 0.0
2015-Dec-07 06:33N 47°40' W 122°24'0 0.0
2015-Dec-07 05:33N 47°40' W 122°24'0 0.0
2015-Dec-07 04:33N 47°40' W 122°24'0 0.0
2015-Dec-07 03:33N 47°40' W 122°24'0 0.0
2015-Dec-07 02:33N 47°40' W 122°24'0 0.0
2015-Dec-07 01:33N 47°40' W 122°24'0 0.0
2015-Dec-07 00:33N 47°40' W 122°24'0 0.0
2015-Dec-06 23:33N 47°40' W 122°24'0 0.0
2015-Dec-06 22:33N 47°40' W 122°24'0 0.0
2015-Dec-06 21:33N 47°40' W 122°24'0 0.3
2015-Dec-06 20:33N 47°40' W 122°23'0 0.0
2015-Dec-06 19:33N 47°40' W 122°23'0 0.0
2015-Dec-06 18:33N 47°40' W 122°23'0 0.0
2015-Dec-06 17:33N 47°40' W 122°23'0 0.0
2015-Dec-06 16:33N 47°40' W 122°23'0 0.0
2015-Dec-06 15:33N 47°40' W 122°23'0 0.3
2015-Dec-06 14:33N 47°40' W 122°24'0 0.0
2015-Dec-06 13:33N 47°40' W 122°24'0 0.0
2015-Dec-06 12:33N 47°40' W 122°24'0 0.0
2015-Dec-06 11:33N 47°40' W 122°24'0 0.0
2015-Dec-06 10:33N 47°40' W 122°24'0 0.0
2015-Dec-06 09:33N 47°40' W 122°24'0 0.0
2015-Dec-06 08:33N 47°40' W 122°24'0 0.0
2015-Dec-06 07:33N 47°40' W 122°24'0 0.0
2015-Dec-06 06:33N 47°40' W 122°24'0 0.0
2015-Dec-06 05:33N 47°40' W 122°24'0 0.0
2015-Dec-06 04:33N 47°40' W 122°24'0 0.0
2015-Dec-06 03:33N 47°40' W 122°24'0 0.0
2015-Dec-06 02:34N 47°40' W 122°24'0 0.0
2015-Dec-06 01:33N 47°40' W 122°24'0 0.0
2015-Dec-06 00:33N 47°40' W 122°24'0 0.0
2015-Dec-05 23:33N 47°40' W 122°24'0 0.0
2015-Dec-05 22:33N 47°40' W 122°24'0 0.0
2015-Dec-05 21:33N 47°40' W 122°24'0 0.0
2015-Dec-05 20:34N 47°40' W 122°24'0 0.0
2015-Dec-05 19:33N 47°40' W 122°24'0 0.0
2015-Dec-05 18:34N 47°40' W 122°24'0 0.0
2015-Dec-05 17:34N 47°40' W 122°24'0 0.0
2015-Dec-05 16:34N 47°40' W 122°24'0 0.0
2015-Dec-05 15:33N 47°40' W 122°24'0 0.0
2015-Dec-05 14:33N 47°40' W 122°24'0 0.0
2015-Dec-05 13:33N 47°40' W 122°24'0 0.0
2015-Dec-05 12:33N 47°40' W 122°24'0 0.0
2015-Dec-05 11:33N 47°40' W 122°24'0 0.0
2015-Dec-05 10:33N 47°40' W 122°24'0 0.0
2015-Dec-05 09:33N 47°40' W 122°24'0 0.0
2015-Dec-05 08:33N 47°40' W 122°24'0 0.0
2015-Dec-05 07:33N 47°40' W 122°24'0 0.0
2015-Dec-05 06:33N 47°40' W 122°24'0 0.0
2015-Dec-05 05:33N 47°40' W 122°24'0 0.0
2015-Dec-05 04:33N 47°40' W 122°24'0 0.0
2015-Dec-05 03:33N 47°40' W 122°24'0 0.0
2015-Dec-05 02:33N 47°40' W 122°24'0 0.0
2015-Dec-05 01:33N 47°40' W 122°24'0 0.0
2015-Dec-05 00:33N 47°40' W 122°24'0 0.0
2015-Dec-04 23:33N 47°40' W 122°24'0 0.0
2015-Dec-04 22:33N 47°40' W 122°24'0 0.0
2015-Dec-04 21:33N 47°40' W 122°24'0 0.0
2015-Dec-04 20:33N 47°40' W 122°24'0 0.0
2015-Dec-04 19:33N 47°40' W 122°24'0 0.0
2015-Dec-04 18:33N 47°40' W 122°24'0 0.0
2015-Dec-04 17:33N 47°40' W 122°24'0 0.0
2015-Dec-04 16:33N 47°40' W 122°24'0 0.0
2015-Dec-04 15:33N 47°40' W 122°24'0 0.0
2015-Dec-04 14:33N 47°40' W 122°24'0 0.0
2015-Dec-04 13:33N 47°40' W 122°24'0 0.0
2015-Dec-04 12:33N 47°40' W 122°24'0 0.0
2015-Dec-04 11:33N 47°40' W 122°24'0 0.0
2015-Dec-04 10:33N 47°40' W 122°24'0 0.0
2015-Dec-04 09:33N 47°40' W 122°24'0 0.0
2015-Dec-04 08:33N 47°40' W 122°24'  

Dump ship's entire track history